Аэропорт: Гостомель. Киев

ICAO: UKKM

METAR:
2019-09-21 16:00:00
UKKM 211600Z AUTO 25006MPS 9999 -RA OVC035/// 11/03 Q1018
METAR:
Информация по данной станции не доступна